sensor_id;sensor_type;location;lat;lon;timestamp;temperature;humidity
3356;DHT22;1691;52.486;13.374;2022-09-09T00:01:10;15.00;98.70
3356;DHT22;1691;52.486;13.374;2022-09-09T00:03:44;15.00;98.70
3356;DHT22;1691;52.486;13.374;2022-09-09T00:06:28;15.00;98.70
3356;DHT22;1691;52.486;13.374;2022-09-09T00:09:15;15.00;98.70
3356;DHT22;1691;52.486;13.374;2022-09-09T00:11:48;15.00;98.70
3356;DHT22;1691;52.486;13.374;2022-09-09T00:14:32;15.00;98.70
3356;DHT22;1691;52.486;13.374;2022-09-09T00:17:14;15.00;98.70
3356;DHT22;1691;52.486;13.374;2022-09-09T00:19:56;14.90;98.70
3356;DHT22;1691;52.486;13.374;2022-09-09T00:22:33;14.90;98.70
3356;DHT22;1691;52.486;13.374;2022-09-09T00:26:02;14.90;98.70
3356;DHT22;1691;52.486;13.374;2022-09-09T00:28:20;14.90;98.70
3356;DHT22;1691;52.486;13.374;2022-09-09T00:30:50;14.90;98.70
3356;DHT22;1691;52.486;13.374;2022-09-09T00:33:23;14.90;98.70
3356;DHT22;1691;52.486;13.374;2022-09-09T00:35:54;14.90;98.70
3356;DHT22;1691;52.486;13.374;2022-09-09T00:38:28;14.90;98.70
3356;DHT22;1691;52.486;13.374;2022-09-09T00:41:13;14.80;98.70
3356;DHT22;1691;52.486;13.374;2022-09-09T00:47:09;14.80;98.70
3356;DHT22;1691;52.486;13.374;2022-09-09T00:56:14;14.80;98.70
3356;DHT22;1691;52.486;13.374;2022-09-09T00:59:20;14.70;98.70
3356;DHT22;1691;52.486;13.374;2022-09-09T01:01:42;14.70;98.70
3356;DHT22;1691;52.486;13.374;2022-09-09T01:04:14;14.70;98.70
3356;DHT22;1691;52.486;13.374;2022-09-09T01:06:46;14.70;98.70
3356;DHT22;1691;52.486;13.374;2022-09-09T01:12:38;14.60;98.70
3356;DHT22;1691;52.486;13.374;2022-09-09T01:15:12;14.60;98.70
3356;DHT22;1691;52.486;13.374;2022-09-09T01:18:05;14.60;98.70
3356;DHT22;1691;52.486;13.374;2022-09-09T01:20:47;14.60;98.70
3356;DHT22;1691;52.486;13.374;2022-09-09T01:23:45;14.60;98.70
3356;DHT22;1691;52.486;13.374;2022-09-09T01:26:35;14.60;98.70
3356;DHT22;1691;52.486;13.374;2022-09-09T01:29:08;14.50;98.70
3356;DHT22;1691;52.486;13.374;2022-09-09T01:31:51;14.50;98.70
3356;DHT22;1691;52.486;13.374;2022-09-09T01:34:31;14.50;98.70
3356;DHT22;1691;52.486;13.374;2022-09-09T01:37:06;14.50;98.70
3356;DHT22;1691;52.486;13.374;2022-09-09T01:39:36;14.40;98.70
3356;DHT22;1691;52.486;13.374;2022-09-09T01:42:07;14.40;98.70
3356;DHT22;1691;52.486;13.374;2022-09-09T01:44:37;14.40;98.70
3356;DHT22;1691;52.486;13.374;2022-09-09T01:47:05;14.40;98.70
3356;DHT22;1691;52.486;13.374;2022-09-09T01:49:33;14.40;98.70
3356;DHT22;1691;52.486;13.374;2022-09-09T01:52:00;14.40;98.70
3356;DHT22;1691;52.486;13.374;2022-09-09T01:54:30;14.40;98.70
3356;DHT22;1691;52.486;13.374;2022-09-09T02:00:06;14.30;98.70
3356;DHT22;1691;52.486;13.374;2022-09-09T02:06:30;14.30;98.70
3356;DHT22;1691;52.486;13.374;2022-09-09T02:09:04;14.30;98.70
3356;DHT22;1691;52.486;13.374;2022-09-09T02:11:33;14.30;98.70
3356;DHT22;1691;52.486;13.374;2022-09-09T02:14:04;14.20;98.70
3356;DHT22;1691;52.486;13.374;2022-09-09T02:16:44;14.20;98.70
3356;DHT22;1691;52.486;13.374;2022-09-09T02:19:36;14.20;98.70
3356;DHT22;1691;52.486;13.374;2022-09-09T02:22:06;14.20;98.70
3356;DHT22;1691;52.486;13.374;2022-09-09T02:24:36;14.20;98.70
3356;DHT22;1691;52.486;13.374;2022-09-09T02:27:08;14.20;98.70
3356;DHT22;1691;52.486;13.374;2022-09-09T02:29:42;14.20;98.70
3356;DHT22;1691;52.486;13.374;2022-09-09T02:32:21;14.20;98.70
3356;DHT22;1691;52.486;13.374;2022-09-09T02:35:00;14.20;98.70
3356;DHT22;1691;52.486;13.374;2022-09-09T02:37:40;14.20;98.70
3356;DHT22;1691;52.486;13.374;2022-09-09T02:40:10;14.10;98.70
3356;DHT22;1691;52.486;13.374;2022-09-09T02:42:41;14.10;98.70
3356;DHT22;1691;52.486;13.374;2022-09-09T02:45:11;14.10;98.70
3356;DHT22;1691;52.486;13.374;2022-09-09T02:50:33;14.10;98.70
3356;DHT22;1691;52.486;13.374;2022-09-09T02:56:09;14.10;98.70
3356;DHT22;1691;52.486;13.374;2022-09-09T02:58:30;14.10;98.70
3356;DHT22;1691;52.486;13.374;2022-09-09T03:00:58;14.00;98.70
3356;DHT22;1691;52.486;13.374;2022-09-09T03:03:28;14.00;98.70
3356;DHT22;1691;52.486;13.374;2022-09-09T03:05:55;14.00;98.70
3356;DHT22;1691;52.486;13.374;2022-09-09T03:08:23;14.00;98.70
3356;DHT22;1691;52.486;13.374;2022-09-09T03:10:50;14.00;98.70
3356;DHT22;1691;52.486;13.374;2022-09-09T03:13:20;14.00;98.70
3356;DHT22;1691;52.486;13.374;2022-09-09T03:15:48;14.00;98.70
3356;DHT22;1691;52.486;13.374;2022-09-09T03:18:15;14.00;98.70
3356;DHT22;1691;52.486;13.374;2022-09-09T03:20:42;14.00;98.70
3356;DHT22;1691;52.486;13.374;2022-09-09T03:23:09;14.00;98.70
3356;DHT22;1691;52.486;13.374;2022-09-09T03:25:47;13.90;98.70
3356;DHT22;1691;52.486;13.374;2022-09-09T03:28:15;13.90;98.70
3356;DHT22;1691;52.486;13.374;2022-09-09T03:30:42;13.90;98.70
3356;DHT22;1691;52.486;13.374;2022-09-09T03:33:09;13.90;98.70
3356;DHT22;1691;52.486;13.374;2022-09-09T03:35:36;13.90;98.70
3356;DHT22;1691;52.486;13.374;2022-09-09T03:38:03;13.80;98.70
3356;DHT22;1691;52.486;13.374;2022-09-09T03:40:30;13.80;98.70
3356;DHT22;1691;52.486;13.374;2022-09-09T03:42:57;13.80;98.70
3356;DHT22;1691;52.486;13.374;2022-09-09T03:45:24;13.80;98.70
3356;DHT22;1691;52.486;13.374;2022-09-09T03:47:51;13.80;98.70
3356;DHT22;1691;52.486;13.374;2022-09-09T03:50:18;13.80;98.70
3356;DHT22;1691;52.486;13.374;2022-09-09T03:52:45;13.80;98.70
3356;DHT22;1691;52.486;13.374;2022-09-09T03:55:13;13.80;98.70
3356;DHT22;1691;52.486;13.374;2022-09-09T03:57:40;13.80;98.70
3356;DHT22;1691;52.486;13.374;2022-09-09T04:00:08;13.80;98.70
3356;DHT22;1691;52.486;13.374;2022-09-09T04:02:35;13.80;98.70
3356;DHT22;1691;52.486;13.374;2022-09-09T04:05:03;13.70;98.70
3356;DHT22;1691;52.486;13.374;2022-09-09T04:07:30;13.70;98.70
3356;DHT22;1691;52.486;13.374;2022-09-09T04:09:58;13.70;98.70
3356;DHT22;1691;52.486;13.374;2022-09-09T04:12:26;13.70;98.70
3356;DHT22;1691;52.486;13.374;2022-09-09T04:14:53;13.70;98.70
3356;DHT22;1691;52.486;13.374;2022-09-09T04:17:20;13.70;98.70
3356;DHT22;1691;52.486;13.374;2022-09-09T04:19:47;13.70;98.70
3356;DHT22;1691;52.486;13.374;2022-09-09T04:22:14;13.70;98.70
3356;DHT22;1691;52.486;13.374;2022-09-09T04:24:42;13.70;98.70
3356;DHT22;1691;52.486;13.374;2022-09-09T04:27:14;13.70;98.70
3356;DHT22;1691;52.486;13.374;2022-09-09T04:29:41;13.70;98.70
3356;DHT22;1691;52.486;13.374;2022-09-09T04:32:08;13.70;98.70
3356;DHT22;1691;52.486;13.374;2022-09-09T04:34:35;13.70;98.70
3356;DHT22;1691;52.486;13.374;2022-09-09T04:37:02;13.70;98.70
3356;DHT22;1691;52.486;13.374;2022-09-09T04:39:29;13.70;98.70
3356;DHT22;1691;52.486;13.374;2022-09-09T04:41:56;13.70;98.70
3356;DHT22;1691;52.486;13.374;2022-09-09T04:44:23;13.70;98.70
3356;DHT22;1691;52.486;13.374;2022-09-09T04:46:51;13.70;98.70
3356;DHT22;1691;52.486;13.374;2022-09-09T04:49:18;13.80;98.70
3356;DHT22;1691;52.486;13.374;2022-09-09T04:51:45;13.80;98.70
3356;DHT22;1691;52.486;13.374;2022-09-09T04:54:13;13.80;98.70
3356;DHT22;1691;52.486;13.374;2022-09-09T04:56:40;13.90;98.70
3356;DHT22;1691;52.486;13.374;2022-09-09T04:59:09;13.90;98.70
3356;DHT22;1691;52.486;13.374;2022-09-09T05:01:36;14.00;98.70
3356;DHT22;1691;52.486;13.374;2022-09-09T05:04:03;14.00;98.70
3356;DHT22;1691;52.486;13.374;2022-09-09T05:06:30;14.10;98.70
3356;DHT22;1691;52.486;13.374;2022-09-09T05:08:58;14.20;98.70
3356;DHT22;1691;52.486;13.374;2022-09-09T05:11:28;14.30;98.70
3356;DHT22;1691;52.486;13.374;2022-09-09T05:14:14;14.30;98.70
3356;DHT22;1691;52.486;13.374;2022-09-09T05:16:41;14.50;98.70
3356;DHT22;1691;52.486;13.374;2022-09-09T05:19:11;15.00;98.70
3356;DHT22;1691;52.486;13.374;2022-09-09T05:21:38;15.60;98.70
3356;DHT22;1691;52.486;13.374;2022-09-09T05:24:05;16.20;98.70
3356;DHT22;1691;52.486;13.374;2022-09-09T05:26:32;16.80;98.70
3356;DHT22;1691;52.486;13.374;2022-09-09T05:28:59;17.40;98.70
3356;DHT22;1691;52.486;13.374;2022-09-09T05:31:29;17.90;98.70
3356;DHT22;1691;52.486;13.374;2022-09-09T05:33:56;18.50;98.70
3356;DHT22;1691;52.486;13.374;2022-09-09T05:36:23;19.00;98.70
3356;DHT22;1691;52.486;13.374;2022-09-09T05:38:51;19.40;98.70
3356;DHT22;1691;52.486;13.374;2022-09-09T05:41:20;19.80;98.70
3356;DHT22;1691;52.486;13.374;2022-09-09T05:43:49;20.20;98.70
3356;DHT22;1691;52.486;13.374;2022-09-09T05:46:20;20.70;98.70
3356;DHT22;1691;52.486;13.374;2022-09-09T05:48:49;21.20;98.70
3356;DHT22;1691;52.486;13.374;2022-09-09T05:51:23;21.70;98.70
3356;DHT22;1691;52.486;13.374;2022-09-09T05:53:53;22.20;98.70
3356;DHT22;1691;52.486;13.374;2022-09-09T05:56:23;22.60;98.70
3356;DHT22;1691;52.486;13.374;2022-09-09T05:58:52;23.00;98.70
3356;DHT22;1691;52.486;13.374;2022-09-09T06:01:31;23.30;98.70
3356;DHT22;1691;52.486;13.374;2022-09-09T06:03:59;23.50;98.70
3356;DHT22;1691;52.486;13.374;2022-09-09T06:06:31;23.70;98.70
3356;DHT22;1691;52.486;13.374;2022-09-09T06:09:04;24.00;98.70
3356;DHT22;1691;52.486;13.374;2022-09-09T06:11:41;24.40;98.70
3356;DHT22;1691;52.486;13.374;2022-09-09T06:14:09;24.80;98.70
3356;DHT22;1691;52.486;13.374;2022-09-09T06:16:36;25.20;97.30
3356;DHT22;1691;52.486;13.374;2022-09-09T06:19:09;25.60;95.80
3356;DHT22;1691;52.486;13.374;2022-09-09T06:21:38;26.00;93.90
3356;DHT22;1691;52.486;13.374;2022-09-09T06:24:07;26.40;92.20
3356;DHT22;1691;52.486;13.374;2022-09-09T06:26:36;26.80;90.60
3356;DHT22;1691;52.486;13.374;2022-09-09T06:29:04;27.10;87.70
3356;DHT22;1691;52.486;13.374;2022-09-09T06:31:34;27.30;85.10
3356;DHT22;1691;52.486;13.374;2022-09-09T06:34:07;27.60;82.10
3356;DHT22;1691;52.486;13.374;2022-09-09T06:36:37;27.60;79.30
3356;DHT22;1691;52.486;13.374;2022-09-09T06:39:06;27.10;78.30
3356;DHT22;1691;52.486;13.374;2022-09-09T06:41:40;26.20;78.50
3356;DHT22;1691;52.486;13.374;2022-09-09T06:44:07;25.10;79.70
3356;DHT22;1691;52.486;13.374;2022-09-09T06:46:34;24.10;81.00
3356;DHT22;1691;52.486;13.374;2022-09-09T06:49:02;23.40;82.60
3356;DHT22;1691;52.486;13.374;2022-09-09T06:51:34;22.80;83.90
3356;DHT22;1691;52.486;13.374;2022-09-09T06:54:03;22.40;84.90
3356;DHT22;1691;52.486;13.374;2022-09-09T06:56:33;22.20;86.20
3356;DHT22;1691;52.486;13.374;2022-09-09T06:59:04;22.60;86.50
3356;DHT22;1691;52.486;13.374;2022-09-09T07:01:37;23.50;84.90
3356;DHT22;1691;52.486;13.374;2022-09-09T07:04:07;24.50;82.10
3356;DHT22;1691;52.486;13.374;2022-09-09T07:06:38;25.60;79.80
3356;DHT22;1691;52.486;13.374;2022-09-09T07:09:09;26.70;75.90
3356;DHT22;1691;52.486;13.374;2022-09-09T07:11:40;27.70;72.60
3356;DHT22;1691;52.486;13.374;2022-09-09T07:14:09;28.60;69.40
3356;DHT22;1691;52.486;13.374;2022-09-09T07:16:41;29.40;66.60
3356;DHT22;1691;52.486;13.374;2022-09-09T07:19:09;30.00;63.60
3356;DHT22;1691;52.486;13.374;2022-09-09T07:21:37;30.60;61.60
3356;DHT22;1691;52.486;13.374;2022-09-09T07:24:06;31.00;59.60
3356;DHT22;1691;52.486;13.374;2022-09-09T07:26:38;31.50;58.50
3356;DHT22;1691;52.486;13.374;2022-09-09T07:29:06;31.80;56.70
3356;DHT22;1691;52.486;13.374;2022-09-09T07:31:36;31.80;56.40
3356;DHT22;1691;52.486;13.374;2022-09-09T07:34:04;31.80;55.60
3356;DHT22;1691;52.486;13.374;2022-09-09T07:36:34;32.00;55.00
3356;DHT22;1691;52.486;13.374;2022-09-09T07:39:11;32.10;54.40
3356;DHT22;1691;52.486;13.374;2022-09-09T07:41:48;32.40;51.30
3356;DHT22;1691;52.486;13.374;2022-09-09T07:44:21;32.70;51.30
3356;DHT22;1691;52.486;13.374;2022-09-09T07:46:49;33.00;50.50
3356;DHT22;1691;52.486;13.374;2022-09-09T07:49:17;33.40;50.50
3356;DHT22;1691;52.486;13.374;2022-09-09T07:51:51;33.80;49.50
3356;DHT22;1691;52.486;13.374;2022-09-09T07:54:20;33.80;49.20
3356;DHT22;1691;52.486;13.374;2022-09-09T07:56:50;33.80;48.90
3356;DHT22;1691;52.486;13.374;2022-09-09T07:59:18;34.10;48.70
3356;DHT22;1691;52.486;13.374;2022-09-09T08:01:51;34.30;47.90
3356;DHT22;1691;52.486;13.374;2022-09-09T08:04:23;34.60;46.90
3356;DHT22;1691;52.486;13.374;2022-09-09T08:06:58;34.80;46.70
3356;DHT22;1691;52.486;13.374;2022-09-09T08:09:27;35.10;45.50
3356;DHT22;1691;52.486;13.374;2022-09-09T08:11:56;35.40;45.80
3356;DHT22;1691;52.486;13.374;2022-09-09T08:14:25;35.80;45.20
3356;DHT22;1691;52.486;13.374;2022-09-09T08:16:53;35.80;44.40
3356;DHT22;1691;52.486;13.374;2022-09-09T08:19:21;35.10;44.20
3356;DHT22;1691;52.486;13.374;2022-09-09T08:21:48;34.20;45.50
3356;DHT22;1691;52.486;13.374;2022-09-09T08:24:16;33.00;46.70
3356;DHT22;1691;52.486;13.374;2022-09-09T08:26:45;31.70;48.90
3356;DHT22;1691;52.486;13.374;2022-09-09T08:29:16;30.80;50.40
3356;DHT22;1691;52.486;13.374;2022-09-09T08:34:11;29.20;53.90
3356;DHT22;1691;52.486;13.374;2022-09-09T08:36:43;28.50;55.30
3356;DHT22;1691;52.486;13.374;2022-09-09T08:39:14;28.00;56.50
3356;DHT22;1691;52.486;13.374;2022-09-09T08:48:39;26.50;60.30
3356;DHT22;1691;52.486;13.374;2022-09-09T08:51:14;26.00;62.30
3356;DHT22;1691;52.486;13.374;2022-09-09T08:53:48;25.50;64.60
3356;DHT22;1691;52.486;13.374;2022-09-09T08:56:23;25.20;65.10
3356;DHT22;1691;52.486;13.374;2022-09-09T08:58:53;24.90;66.10
3356;DHT22;1691;52.486;13.374;2022-09-09T09:01:44;24.80;67.20
3356;DHT22;1691;52.486;13.374;2022-09-09T09:04:41;24.80;67.50
3356;DHT22;1691;52.486;13.374;2022-09-09T09:07:52;24.70;68.10
3356;DHT22;1691;52.486;13.374;2022-09-09T09:13:23;25.20;68.70
3356;DHT22;1691;52.486;13.374;2022-09-09T09:16:02;26.10;66.60
3356;DHT22;1691;52.486;13.374;2022-09-09T09:18:37;26.90;64.70
3356;DHT22;1691;52.486;13.374;2022-09-09T09:21:10;27.60;63.10
3356;DHT22;1691;52.486;13.374;2022-09-09T09:23:57;27.90;61.20
3356;DHT22;1691;52.486;13.374;2022-09-09T09:26:33;28.30;60.30
3356;DHT22;1691;52.486;13.374;2022-09-09T09:29:16;29.30;58.90
3356;DHT22;1691;52.486;13.374;2022-09-09T09:31:56;30.60;55.80
3356;DHT22;1691;52.486;13.374;2022-09-09T09:34:25;31.90;53.00
3356;DHT22;1691;52.486;13.374;2022-09-09T09:36:54;32.80;52.40
3356;DHT22;1691;52.486;13.374;2022-09-09T09:42:19;34.20;47.80
3356;DHT22;1691;52.486;13.374;2022-09-09T09:44:49;34.70;47.60
3356;DHT22;1691;52.486;13.374;2022-09-09T09:47:19;35.20;46.40
3356;DHT22;1691;52.486;13.374;2022-09-09T09:49:58;35.70;45.20
3356;DHT22;1691;52.486;13.374;2022-09-09T09:52:29;36.10;43.00
3356;DHT22;1691;52.486;13.374;2022-09-09T09:54:58;36.40;43.30
3356;DHT22;1691;52.486;13.374;2022-09-09T09:57:33;36.40;42.70
3356;DHT22;1691;52.486;13.374;2022-09-09T10:00:20;36.10;42.40
3356;DHT22;1691;52.486;13.374;2022-09-09T10:02:49;36.00;41.30
3356;DHT22;1691;52.486;13.374;2022-09-09T10:05:30;36.10;42.70
3356;DHT22;1691;52.486;13.374;2022-09-09T10:08:03;36.00;41.30
3356;DHT22;1691;52.486;13.374;2022-09-09T10:19:34;33.90;43.90
3356;DHT22;1691;52.486;13.374;2022-09-09T10:22:31;33.60;45.90
3356;DHT22;1691;52.486;13.374;2022-09-09T10:31:16;32.50;46.20
3356;DHT22;1691;52.486;13.374;2022-09-09T10:40:33;30.50;49.90
3356;DHT22;1691;52.486;13.374;2022-09-09T10:55:20;29.80;51.80
3356;DHT22;1691;52.486;13.374;2022-09-09T10:57:58;29.70;53.50
3356;DHT22;1691;52.486;13.374;2022-09-09T11:03:06;29.80;53.00
3356;DHT22;1691;52.486;13.374;2022-09-09T11:05:57;30.00;53.30
3356;DHT22;1691;52.486;13.374;2022-09-09T11:08:35;29.60;53.30
3356;DHT22;1691;52.486;13.374;2022-09-09T11:11:16;28.70;54.50
3356;DHT22;1691;52.486;13.374;2022-09-09T11:17:33;27.30;57.20
3356;DHT22;1691;52.486;13.374;2022-09-09T11:20:05;27.10;58.10
3356;DHT22;1691;52.486;13.374;2022-09-09T11:22:42;26.90;59.00
3356;DHT22;1691;52.486;13.374;2022-09-09T11:25:29;26.60;59.50
3356;DHT22;1691;52.486;13.374;2022-09-09T11:42:34;25.30;64.00
3356;DHT22;1691;52.486;13.374;2022-09-09T11:45:23;25.20;65.30
3356;DHT22;1691;52.486;13.374;2022-09-09T11:47:55;25.10;64.70
3356;DHT22;1691;52.486;13.374;2022-09-09T11:53:02;25.00;65.50
3356;DHT22;1691;52.486;13.374;2022-09-09T11:55:33;24.90;65.50
3356;DHT22;1691;52.486;13.374;2022-09-09T12:01:12;24.90;65.70
3356;DHT22;1691;52.486;13.374;2022-09-09T12:06:33;25.00;64.90
3356;DHT22;1691;52.486;13.374;2022-09-09T12:09:26;24.90;65.50
3356;DHT22;1691;52.486;13.374;2022-09-09T12:17:29;25.00;65.70
3356;DHT22;1691;52.486;13.374;2022-09-09T12:23:22;24.70;66.10
3356;DHT22;1691;52.486;13.374;2022-09-09T12:32:09;24.40;67.00
3356;DHT22;1691;52.486;13.374;2022-09-09T12:39:58;24.30;66.40
3356;DHT22;1691;52.486;13.374;2022-09-09T12:42:29;24.30;67.00
3356;DHT22;1691;52.486;13.374;2022-09-09T12:44:59;24.30;66.80
3356;DHT22;1691;52.486;13.374;2022-09-09T12:50:28;24.30;66.20
3356;DHT22;1691;52.486;13.374;2022-09-09T12:53:26;24.30;66.40
3356;DHT22;1691;52.486;13.374;2022-09-09T12:56:08;24.30;66.60
3356;DHT22;1691;52.486;13.374;2022-09-09T12:58:47;24.40;67.20
3356;DHT22;1691;52.486;13.374;2022-09-09T13:01:25;24.50;67.00
3356;DHT22;1691;52.486;13.374;2022-09-09T13:03:54;24.60;66.80
3356;DHT22;1691;52.486;13.374;2022-09-09T13:06:29;24.70;66.60
3356;DHT22;1691;52.486;13.374;2022-09-09T13:08:59;24.90;66.40
3356;DHT22;1691;52.486;13.374;2022-09-09T13:11:38;25.00;65.70
3356;DHT22;1691;52.486;13.374;2022-09-09T13:14:42;25.10;64.70
3356;DHT22;1691;52.486;13.374;2022-09-09T13:17:24;25.20;63.80
3356;DHT22;1691;52.486;13.374;2022-09-09T13:19:54;25.20;63.80
3356;DHT22;1691;52.486;13.374;2022-09-09T13:22:36;25.20;64.40
3356;DHT22;1691;52.486;13.374;2022-09-09T13:27:40;25.20;63.80
3356;DHT22;1691;52.486;13.374;2022-09-09T13:35:58;25.20;63.80
3356;DHT22;1691;52.486;13.374;2022-09-09T13:38:36;25.30;63.40
3356;DHT22;1691;52.486;13.374;2022-09-09T13:41:20;25.20;64.20
3356;DHT22;1691;52.486;13.374;2022-09-09T13:43:48;25.20;63.80
3356;DHT22;1691;52.486;13.374;2022-09-09T13:46:31;25.20;64.20
3356;DHT22;1691;52.486;13.374;2022-09-09T13:49:22;25.30;63.60
3356;DHT22;1691;52.486;13.374;2022-09-09T13:51:51;25.30;64.00
3356;DHT22;1691;52.486;13.374;2022-09-09T13:54:21;25.40;63.60
3356;DHT22;1691;52.486;13.374;2022-09-09T13:56:49;25.40;63.60
3356;DHT22;1691;52.486;13.374;2022-09-09T13:59:19;25.40;63.30
3356;DHT22;1691;52.486;13.374;2022-09-09T14:01:46;25.40;63.10
3356;DHT22;1691;52.486;13.374;2022-09-09T14:04:13;25.40;63.10
3356;DHT22;1691;52.486;13.374;2022-09-09T14:06:42;25.50;62.90
3356;DHT22;1691;52.486;13.374;2022-09-09T14:09:12;25.50;62.90
3356;DHT22;1691;52.486;13.374;2022-09-09T14:11:43;25.60;62.10
3356;DHT22;1691;52.486;13.374;2022-09-09T14:14:12;25.60;61.80
3356;DHT22;1691;52.486;13.374;2022-09-09T14:16:39;25.70;61.80
3356;DHT22;1691;52.486;13.374;2022-09-09T14:19:07;25.80;61.20
3356;DHT22;1691;52.486;13.374;2022-09-09T14:21:35;25.90;60.80
3356;DHT22;1691;52.486;13.374;2022-09-09T14:24:02;26.00;60.60
3356;DHT22;1691;52.486;13.374;2022-09-09T14:26:29;26.00;59.90
3356;DHT22;1691;52.486;13.374;2022-09-09T14:28:56;25.90;59.60
3356;DHT22;1691;52.486;13.374;2022-09-09T14:31:24;25.90;59.60
3356;DHT22;1691;52.486;13.374;2022-09-09T14:33:51;25.90;59.50
3356;DHT22;1691;52.486;13.374;2022-09-09T14:36:19;25.70;59.80
3356;DHT22;1691;52.486;13.374;2022-09-09T14:38:47;25.50;60.30
3356;DHT22;1691;52.486;13.374;2022-09-09T14:41:17;25.30;60.80
3356;DHT22;1691;52.486;13.374;2022-09-09T14:43:45;25.10;61.20
3356;DHT22;1691;52.486;13.374;2022-09-09T14:46:17;25.00;61.60
3356;DHT22;1691;52.486;13.374;2022-09-09T14:48:46;24.70;62.10
3356;DHT22;1691;52.486;13.374;2022-09-09T14:51:18;24.50;63.10
3356;DHT22;1691;52.486;13.374;2022-09-09T14:53:51;24.40;64.00
3356;DHT22;1691;52.486;13.374;2022-09-09T14:56:22;24.30;64.70
3356;DHT22;1691;52.486;13.374;2022-09-09T14:58:53;24.20;65.70
3356;DHT22;1691;52.486;13.374;2022-09-09T15:01:22;24.20;66.20
3356;DHT22;1691;52.486;13.374;2022-09-09T15:03:55;24.20;66.80
3356;DHT22;1691;52.486;13.374;2022-09-09T15:06:25;24.20;66.60
3356;DHT22;1691;52.486;13.374;2022-09-09T15:08:56;24.20;66.80
3356;DHT22;1691;52.486;13.374;2022-09-09T15:11:29;24.20;66.80
3356;DHT22;1691;52.486;13.374;2022-09-09T15:13:58;24.20;67.20
3356;DHT22;1691;52.486;13.374;2022-09-09T15:16:27;24.20;67.50
3356;DHT22;1691;52.486;13.374;2022-09-09T15:18:57;24.10;67.50
3356;DHT22;1691;52.486;13.374;2022-09-09T15:21:30;24.20;67.00
3356;DHT22;1691;52.486;13.374;2022-09-09T15:23:59;24.20;66.20
3356;DHT22;1691;52.486;13.374;2022-09-09T15:26:27;24.20;66.10
3356;DHT22;1691;52.486;13.374;2022-09-09T15:28:54;24.20;65.50
3356;DHT22;1691;52.486;13.374;2022-09-09T15:31:29;24.20;65.30
3356;DHT22;1691;52.486;13.374;2022-09-09T15:33:58;24.20;64.70
3356;DHT22;1691;52.486;13.374;2022-09-09T15:36:34;24.20;65.10
3356;DHT22;1691;52.486;13.374;2022-09-09T15:39:07;24.20;64.60
3356;DHT22;1691;52.486;13.374;2022-09-09T15:41:39;24.20;64.20
3356;DHT22;1691;52.486;13.374;2022-09-09T15:44:07;24.10;64.00
3356;DHT22;1691;52.486;13.374;2022-09-09T15:46:35;24.00;63.60
3356;DHT22;1691;52.486;13.374;2022-09-09T15:49:08;23.90;63.60
3356;DHT22;1691;52.486;13.374;2022-09-09T15:51:39;23.90;63.80
3356;DHT22;1691;52.486;13.374;2022-09-09T15:54:15;23.80;63.60
3356;DHT22;1691;52.486;13.374;2022-09-09T15:56:45;23.80;63.40
3356;DHT22;1691;52.486;13.374;2022-09-09T15:59:14;23.80;63.80
3356;DHT22;1691;52.486;13.374;2022-09-09T16:01:42;23.80;63.60
3356;DHT22;1691;52.486;13.374;2022-09-09T16:04:11;23.90;63.60
3356;DHT22;1691;52.486;13.374;2022-09-09T16:06:38;23.90;63.60
3356;DHT22;1691;52.486;13.374;2022-09-09T16:09:07;23.90;63.60
3356;DHT22;1691;52.486;13.374;2022-09-09T16:11:36;23.90;63.60
3356;DHT22;1691;52.486;13.374;2022-09-09T16:14:05;23.90;63.40
3356;DHT22;1691;52.486;13.374;2022-09-09T16:16:33;23.90;63.30
3356;DHT22;1691;52.486;13.374;2022-09-09T16:19:10;23.80;63.40
3356;DHT22;1691;52.486;13.374;2022-09-09T16:21:45;23.70;62.90
3356;DHT22;1691;52.486;13.374;2022-09-09T16:24:17;23.60;63.60
3356;DHT22;1691;52.486;13.374;2022-09-09T16:26:50;23.60;64.00
3356;DHT22;1691;52.486;13.374;2022-09-09T16:29:19;23.50;64.00
3356;DHT22;1691;52.486;13.374;2022-09-09T16:31:46;23.40;64.70
3356;DHT22;1691;52.486;13.374;2022-09-09T16:34:16;23.30;65.30
3356;DHT22;1691;52.486;13.374;2022-09-09T16:36:44;23.20;65.90
3356;DHT22;1691;52.486;13.374;2022-09-09T16:39:17;23.10;66.40
3356;DHT22;1691;52.486;13.374;2022-09-09T16:41:47;23.00;67.00
3356;DHT22;1691;52.486;13.374;2022-09-09T16:44:16;23.00;67.50
3356;DHT22;1691;52.486;13.374;2022-09-09T16:46:46;22.90;67.90
3356;DHT22;1691;52.486;13.374;2022-09-09T16:49:15;22.80;68.50
3356;DHT22;1691;52.486;13.374;2022-09-09T16:51:45;22.70;68.80
3356;DHT22;1691;52.486;13.374;2022-09-09T16:54:15;22.60;69.00
3356;DHT22;1691;52.486;13.374;2022-09-09T16:56:45;22.60;69.00
3356;DHT22;1691;52.486;13.374;2022-09-09T16:59:20;22.50;69.00
3356;DHT22;1691;52.486;13.374;2022-09-09T17:01:50;22.50;68.80
3356;DHT22;1691;52.486;13.374;2022-09-09T17:04:23;22.40;69.00
3356;DHT22;1691;52.486;13.374;2022-09-09T17:06:54;22.30;68.80
3356;DHT22;1691;52.486;13.374;2022-09-09T17:09:22;22.30;69.20
3356;DHT22;1691;52.486;13.374;2022-09-09T17:11:50;22.20;69.60
3356;DHT22;1691;52.486;13.374;2022-09-09T17:14:20;22.10;69.80
3356;DHT22;1691;52.486;13.374;2022-09-09T17:16:48;22.10;70.10
3356;DHT22;1691;52.486;13.374;2022-09-09T17:19:15;22.00;70.50
3356;DHT22;1691;52.486;13.374;2022-09-09T17:21:42;21.90;71.30
3356;DHT22;1691;52.486;13.374;2022-09-09T17:24:29;21.70;72.20
3356;DHT22;1691;52.486;13.374;2022-09-09T17:26:57;21.60;73.30
3356;DHT22;1691;52.486;13.374;2022-09-09T17:29:24;21.50;74.60
3356;DHT22;1691;52.486;13.374;2022-09-09T17:31:52;21.30;75.70
3356;DHT22;1691;52.486;13.374;2022-09-09T17:34:19;21.20;76.90
3356;DHT22;1691;52.486;13.374;2022-09-09T17:36:46;21.10;78.00
3356;DHT22;1691;52.486;13.374;2022-09-09T17:39:14;20.90;78.50
3356;DHT22;1691;52.486;13.374;2022-09-09T17:41:42;20.80;78.70
3356;DHT22;1691;52.486;13.374;2022-09-09T17:44:09;20.70;78.70
3356;DHT22;1691;52.486;13.374;2022-09-09T17:46:41;20.50;78.70
3356;DHT22;1691;52.486;13.374;2022-09-09T17:49:14;20.40;78.50
3356;DHT22;1691;52.486;13.374;2022-09-09T17:51:44;20.30;78.90
3356;DHT22;1691;52.486;13.374;2022-09-09T17:54:17;20.10;79.10
3356;DHT22;1691;52.486;13.374;2022-09-09T17:56:46;20.00;78.90
3356;DHT22;1691;52.486;13.374;2022-09-09T17:59:16;19.90;79.10
3356;DHT22;1691;52.486;13.374;2022-09-09T18:01:46;19.80;79.50
3356;DHT22;1691;52.486;13.374;2022-09-09T18:04:18;19.70;79.70
3356;DHT22;1691;52.486;13.374;2022-09-09T18:06:50;19.60;79.80
3356;DHT22;1691;52.486;13.374;2022-09-09T18:09:20;19.50;80.20
3356;DHT22;1691;52.486;13.374;2022-09-09T18:11:51;19.40;80.60
3356;DHT22;1691;52.486;13.374;2022-09-09T18:14:25;19.30;81.10
3356;DHT22;1691;52.486;13.374;2022-09-09T18:17:00;19.20;81.50
3356;DHT22;1691;52.486;13.374;2022-09-09T18:19:30;19.20;81.90
3356;DHT22;1691;52.486;13.374;2022-09-09T18:21:59;19.10;82.30
3356;DHT22;1691;52.486;13.374;2022-09-09T18:24:28;19.00;82.60
3356;DHT22;1691;52.486;13.374;2022-09-09T18:26:56;18.90;82.80
3356;DHT22;1691;52.486;13.374;2022-09-09T18:29:23;18.90;83.20
3356;DHT22;1691;52.486;13.374;2022-09-09T18:31:52;18.80;83.40